sensor_id;sensor_type;location;lat;lon;timestamp;P1;durP1;ratioP1;P2;durP2;ratioP2
11496;SDS011;5805;51.542;7.230;2022-09-06T00:00:37;6.38;;;2.80;;
11496;SDS011;5805;51.542;7.230;2022-09-06T00:03:04;6.72;;;2.95;;
11496;SDS011;5805;51.542;7.230;2022-09-06T00:05:31;4.80;;;2.78;;
11496;SDS011;5805;51.542;7.230;2022-09-06T00:07:58;4.97;;;2.78;;
11496;SDS011;5805;51.542;7.230;2022-09-06T00:10:24;5.15;;;2.45;;
11496;SDS011;5805;51.542;7.230;2022-09-06T00:12:50;4.82;;;2.83;;
11496;SDS011;5805;51.542;7.230;2022-09-06T00:15:16;6.00;;;3.00;;
11496;SDS011;5805;51.542;7.230;2022-09-06T00:17:41;4.13;;;2.65;;
11496;SDS011;5805;51.542;7.230;2022-09-06T00:20:07;4.18;;;2.80;;
11496;SDS011;5805;51.542;7.230;2022-09-06T00:22:35;4.47;;;2.80;;
11496;SDS011;5805;51.542;7.230;2022-09-06T00:25:00;4.32;;;2.53;;
11496;SDS011;5805;51.542;7.230;2022-09-06T00:27:26;5.53;;;3.35;;
11496;SDS011;5805;51.542;7.230;2022-09-06T00:29:52;5.97;;;2.47;;
11496;SDS011;5805;51.542;7.230;2022-09-06T00:32:17;5.68;;;3.13;;
11496;SDS011;5805;51.542;7.230;2022-09-06T00:34:43;5.40;;;2.97;;
11496;SDS011;5805;51.542;7.230;2022-09-06T00:37:09;5.90;;;3.20;;
11496;SDS011;5805;51.542;7.230;2022-09-06T00:39:36;10.35;;;2.80;;
11496;SDS011;5805;51.542;7.230;2022-09-06T00:42:02;2.90;;;2.45;;
11496;SDS011;5805;51.542;7.230;2022-09-06T00:44:32;6.72;;;3.08;;
11496;SDS011;5805;51.542;7.230;2022-09-06T00:46:57;4.30;;;2.60;;
11496;SDS011;5805;51.542;7.230;2022-09-06T00:49:24;5.00;;;2.92;;
11496;SDS011;5805;51.542;7.230;2022-09-06T00:51:54;8.50;;;2.70;;
11496;SDS011;5805;51.542;7.230;2022-09-06T00:54:23;4.68;;;3.45;;
11496;SDS011;5805;51.542;7.230;2022-09-06T00:56:50;4.32;;;2.70;;
11496;SDS011;5805;51.542;7.230;2022-09-06T00:59:16;5.00;;;2.63;;
11496;SDS011;5805;51.542;7.230;2022-09-06T01:01:42;4.07;;;3.13;;
11496;SDS011;5805;51.542;7.230;2022-09-06T01:04:08;7.22;;;3.00;;
11496;SDS011;5805;51.542;7.230;2022-09-06T01:06:37;3.63;;;2.78;;
11496;SDS011;5805;51.542;7.230;2022-09-06T01:09:11;5.40;;;3.13;;
11496;SDS011;5805;51.542;7.230;2022-09-06T01:11:52;3.35;;;2.75;;
11496;SDS011;5805;51.542;7.230;2022-09-06T01:14:30;6.15;;;3.25;;
11496;SDS011;5805;51.542;7.230;2022-09-06T01:17:06;4.28;;;2.80;;
11496;SDS011;5805;51.542;7.230;2022-09-06T01:19:54;5.50;;;3.17;;
11496;SDS011;5805;51.542;7.230;2022-09-06T01:22:48;4.85;;;3.13;;
11496;SDS011;5805;51.542;7.230;2022-09-06T01:25:35;5.45;;;3.00;;
11496;SDS011;5805;51.542;7.230;2022-09-06T01:28:17;3.97;;;3.22;;
11496;SDS011;5805;51.542;7.230;2022-09-06T01:30:52;5.20;;;2.70;;
11496;SDS011;5805;51.542;7.230;2022-09-06T01:33:28;5.25;;;2.67;;
11496;SDS011;5805;51.542;7.230;2022-09-06T01:35:59;5.63;;;3.00;;
11496;SDS011;5805;51.542;7.230;2022-09-06T01:38:28;4.32;;;2.60;;
11496;SDS011;5805;51.542;7.230;2022-09-06T01:40:54;4.65;;;2.45;;
11496;SDS011;5805;51.542;7.230;2022-09-06T01:43:22;4.50;;;2.30;;
11496;SDS011;5805;51.542;7.230;2022-09-06T01:45:53;7.03;;;2.50;;
11496;SDS011;5805;51.542;7.230;2022-09-06T01:48:27;5.07;;;2.70;;
11496;SDS011;5805;51.542;7.230;2022-09-06T01:51:04;3.95;;;2.50;;
11496;SDS011;5805;51.542;7.230;2022-09-06T01:53:45;3.95;;;2.75;;
11496;SDS011;5805;51.542;7.230;2022-09-06T01:56:23;4.25;;;2.40;;
11496;SDS011;5805;51.542;7.230;2022-09-06T01:59:07;3.65;;;2.28;;
11496;SDS011;5805;51.542;7.230;2022-09-06T02:01:50;8.82;;;2.88;;
11496;SDS011;5805;51.542;7.230;2022-09-06T02:04:24;3.60;;;3.17;;
11496;SDS011;5805;51.542;7.230;2022-09-06T02:06:56;6.97;;;2.47;;
11496;SDS011;5805;51.542;7.230;2022-09-06T02:09:24;6.18;;;2.40;;
11496;SDS011;5805;51.542;7.230;2022-09-06T02:11:53;6.45;;;2.72;;
11496;SDS011;5805;51.542;7.230;2022-09-06T02:14:26;6.07;;;2.50;;
11496;SDS011;5805;51.542;7.230;2022-09-06T02:16:55;3.97;;;2.53;;
11496;SDS011;5805;51.542;7.230;2022-09-06T02:19:23;7.75;;;3.10;;
11496;SDS011;5805;51.542;7.230;2022-09-06T02:21:56;7.72;;;2.83;;
11496;SDS011;5805;51.542;7.230;2022-09-06T02:24:24;5.90;;;3.00;;
11496;SDS011;5805;51.542;7.230;2022-09-06T02:26:54;5.75;;;3.10;;
11496;SDS011;5805;51.542;7.230;2022-09-06T02:29:20;5.05;;;2.70;;
11496;SDS011;5805;51.542;7.230;2022-09-06T02:31:48;5.25;;;2.72;;
11496;SDS011;5805;51.542;7.230;2022-09-06T02:34:17;7.85;;;3.55;;
11496;SDS011;5805;51.542;7.230;2022-09-06T02:36:44;7.70;;;3.05;;
11496;SDS011;5805;51.542;7.230;2022-09-06T02:39:11;4.40;;;2.65;;
11496;SDS011;5805;51.542;7.230;2022-09-06T02:41:37;5.85;;;2.88;;
11496;SDS011;5805;51.542;7.230;2022-09-06T02:44:04;6.07;;;2.88;;
11496;SDS011;5805;51.542;7.230;2022-09-06T02:46:30;5.65;;;2.80;;
11496;SDS011;5805;51.542;7.230;2022-09-06T02:48:57;6.38;;;2.80;;
11496;SDS011;5805;51.542;7.230;2022-09-06T02:51:23;6.53;;;2.88;;
11496;SDS011;5805;51.542;7.230;2022-09-06T02:53:49;9.70;;;3.15;;
11496;SDS011;5805;51.542;7.230;2022-09-06T02:56:14;5.47;;;3.30;;
11496;SDS011;5805;51.542;7.230;2022-09-06T02:58:40;5.35;;;3.38;;
11496;SDS011;5805;51.542;7.230;2022-09-06T03:01:06;7.25;;;2.95;;
11496;SDS011;5805;51.542;7.230;2022-09-06T03:03:31;5.38;;;3.17;;
11496;SDS011;5805;51.542;7.230;2022-09-06T03:05:58;5.13;;;3.10;;
11496;SDS011;5805;51.542;7.230;2022-09-06T03:08:24;5.35;;;3.40;;
11496;SDS011;5805;51.542;7.230;2022-09-06T03:10:50;6.07;;;3.60;;
11496;SDS011;5805;51.542;7.230;2022-09-06T03:13:17;4.18;;;3.13;;
11496;SDS011;5805;51.542;7.230;2022-09-06T03:15:44;5.40;;;3.20;;
11496;SDS011;5805;51.542;7.230;2022-09-06T03:18:13;8.00;;;4.07;;
11496;SDS011;5805;51.542;7.230;2022-09-06T03:20:39;7.07;;;3.78;;
11496;SDS011;5805;51.542;7.230;2022-09-06T03:23:06;12.05;;;3.85;;
11496;SDS011;5805;51.542;7.230;2022-09-06T03:25:31;6.70;;;4.00;;
11496;SDS011;5805;51.542;7.230;2022-09-06T03:27:57;6.38;;;3.47;;
11496;SDS011;5805;51.542;7.230;2022-09-06T03:30:23;5.88;;;3.25;;
11496;SDS011;5805;51.542;7.230;2022-09-06T03:32:48;7.60;;;3.70;;
11496;SDS011;5805;51.542;7.230;2022-09-06T03:35:14;4.28;;;3.30;;
11496;SDS011;5805;51.542;7.230;2022-09-06T03:37:40;8.93;;;3.55;;
11496;SDS011;5805;51.542;7.230;2022-09-06T03:40:08;5.47;;;3.65;;
11496;SDS011;5805;51.542;7.230;2022-09-06T03:42:34;7.50;;;3.80;;
11496;SDS011;5805;51.542;7.230;2022-09-06T03:45:00;7.28;;;3.78;;
11496;SDS011;5805;51.542;7.230;2022-09-06T03:47:26;7.85;;;3.83;;
11496;SDS011;5805;51.542;7.230;2022-09-06T03:49:51;4.40;;;3.80;;
11496;SDS011;5805;51.542;7.230;2022-09-06T03:52:17;5.72;;;3.78;;
11496;SDS011;5805;51.542;7.230;2022-09-06T03:54:43;6.35;;;3.50;;
11496;SDS011;5805;51.542;7.230;2022-09-06T03:57:10;7.47;;;4.10;;
11496;SDS011;5805;51.542;7.230;2022-09-06T03:59:35;6.15;;;3.92;;
11496;SDS011;5805;51.542;7.230;2022-09-06T04:02:01;4.20;;;3.63;;
11496;SDS011;5805;51.542;7.230;2022-09-06T04:04:27;6.75;;;3.63;;
11496;SDS011;5805;51.542;7.230;2022-09-06T04:06:53;7.53;;;3.70;;
11496;SDS011;5805;51.542;7.230;2022-09-06T04:09:18;7.43;;;3.63;;
11496;SDS011;5805;51.542;7.230;2022-09-06T04:11:44;6.78;;;3.85;;
11496;SDS011;5805;51.542;7.230;2022-09-06T04:14:11;7.35;;;3.70;;
11496;SDS011;5805;51.542;7.230;2022-09-06T04:16:37;7.28;;;3.22;;
11496;SDS011;5805;51.542;7.230;2022-09-06T04:19:03;8.50;;;3.53;;
11496;SDS011;5805;51.542;7.230;2022-09-06T04:21:28;6.22;;;4.05;;
11496;SDS011;5805;51.542;7.230;2022-09-06T04:23:54;9.38;;;4.22;;
11496;SDS011;5805;51.542;7.230;2022-09-06T04:26:20;7.55;;;3.78;;
11496;SDS011;5805;51.542;7.230;2022-09-06T04:28:46;5.38;;;3.65;;
11496;SDS011;5805;51.542;7.230;2022-09-06T04:31:13;9.27;;;3.85;;
11496;SDS011;5805;51.542;7.230;2022-09-06T04:33:39;5.40;;;4.00;;
11496;SDS011;5805;51.542;7.230;2022-09-06T04:36:05;7.70;;;4.07;;
11496;SDS011;5805;51.542;7.230;2022-09-06T04:38:33;6.07;;;4.30;;
11496;SDS011;5805;51.542;7.230;2022-09-06T04:41:00;6.28;;;3.85;;
11496;SDS011;5805;51.542;7.230;2022-09-06T04:43:26;8.13;;;3.70;;
11496;SDS011;5805;51.542;7.230;2022-09-06T04:45:51;5.88;;;3.67;;
11496;SDS011;5805;51.542;7.230;2022-09-06T04:48:19;10.27;;;3.95;;
11496;SDS011;5805;51.542;7.230;2022-09-06T04:50:44;7.63;;;3.53;;
11496;SDS011;5805;51.542;7.230;2022-09-06T04:53:10;6.47;;;3.92;;
11496;SDS011;5805;51.542;7.230;2022-09-06T04:55:36;7.53;;;3.83;;
11496;SDS011;5805;51.542;7.230;2022-09-06T04:58:02;6.18;;;3.38;;
11496;SDS011;5805;51.542;7.230;2022-09-06T05:00:29;7.53;;;3.20;;
11496;SDS011;5805;51.542;7.230;2022-09-06T05:02:57;4.75;;;3.10;;
11496;SDS011;5805;51.542;7.230;2022-09-06T05:05:24;6.55;;;3.95;;
11496;SDS011;5805;51.542;7.230;2022-09-06T05:07:50;7.35;;;3.30;;
11496;SDS011;5805;51.542;7.230;2022-09-06T05:10:16;4.07;;;2.90;;
11496;SDS011;5805;51.542;7.230;2022-09-06T05:12:41;5.22;;;2.85;;
11496;SDS011;5805;51.542;7.230;2022-09-06T05:15:08;5.55;;;3.00;;
11496;SDS011;5805;51.542;7.230;2022-09-06T05:17:33;8.65;;;2.90;;
11496;SDS011;5805;51.542;7.230;2022-09-06T05:19:59;5.53;;;3.13;;
11496;SDS011;5805;51.542;7.230;2022-09-06T05:22:26;5.18;;;3.00;;
11496;SDS011;5805;51.542;7.230;2022-09-06T05:24:52;7.15;;;2.70;;
11496;SDS011;5805;51.542;7.230;2022-09-06T05:27:17;5.78;;;2.95;;
11496;SDS011;5805;51.542;7.230;2022-09-06T05:29:43;5.82;;;2.55;;
11496;SDS011;5805;51.542;7.230;2022-09-06T05:32:09;9.70;;;3.03;;
11496;SDS011;5805;51.542;7.230;2022-09-06T05:34:34;7.22;;;2.83;;
11496;SDS011;5805;51.542;7.230;2022-09-06T05:37:00;4.55;;;2.50;;
11496;SDS011;5805;51.542;7.230;2022-09-06T05:39:27;5.80;;;2.53;;
11496;SDS011;5805;51.542;7.230;2022-09-06T05:41:53;5.30;;;2.55;;
11496;SDS011;5805;51.542;7.230;2022-09-06T05:44:18;4.07;;;2.92;;
11496;SDS011;5805;51.542;7.230;2022-09-06T05:46:44;5.43;;;2.58;;
11496;SDS011;5805;51.542;7.230;2022-09-06T05:49:10;4.93;;;2.58;;
11496;SDS011;5805;51.542;7.230;2022-09-06T05:51:37;6.57;;;2.60;;
11496;SDS011;5805;51.542;7.230;2022-09-06T05:54:03;3.50;;;2.78;;
11496;SDS011;5805;51.542;7.230;2022-09-06T05:56:30;2.67;;;2.05;;
11496;SDS011;5805;51.542;7.230;2022-09-06T05:58:55;4.00;;;2.35;;
11496;SDS011;5805;51.542;7.230;2022-09-06T06:01:21;4.13;;;2.60;;
11496;SDS011;5805;51.542;7.230;2022-09-06T06:03:51;3.95;;;2.50;;
11496;SDS011;5805;51.542;7.230;2022-09-06T06:06:18;5.05;;;2.53;;
11496;SDS011;5805;51.542;7.230;2022-09-06T06:08:44;5.05;;;2.70;;
11496;SDS011;5805;51.542;7.230;2022-09-06T06:11:10;3.33;;;2.28;;
11496;SDS011;5805;51.542;7.230;2022-09-06T06:13:38;3.67;;;2.20;;
11496;SDS011;5805;51.542;7.230;2022-09-06T06:16:04;4.50;;;2.22;;
11496;SDS011;5805;51.542;7.230;2022-09-06T06:18:30;7.32;;;2.38;;
11496;SDS011;5805;51.542;7.230;2022-09-06T06:21:05;6.68;;;2.58;;
11496;SDS011;5805;51.542;7.230;2022-09-06T06:23:32;6.45;;;3.20;;
11496;SDS011;5805;51.542;7.230;2022-09-06T06:25:57;4.65;;;2.85;;
11496;SDS011;5805;51.542;7.230;2022-09-06T06:28:23;4.95;;;2.70;;
11496;SDS011;5805;51.542;7.230;2022-09-06T06:30:50;10.60;;;2.97;;
11496;SDS011;5805;51.542;7.230;2022-09-06T06:33:16;7.57;;;2.95;;
11496;SDS011;5805;51.542;7.230;2022-09-06T06:35:51;7.22;;;2.97;;
11496;SDS011;5805;51.542;7.230;2022-09-06T06:38:20;3.65;;;2.85;;
11496;SDS011;5805;51.542;7.230;2022-09-06T06:40:46;6.03;;;2.92;;
11496;SDS011;5805;51.542;7.230;2022-09-06T06:43:12;6.80;;;2.60;;
11496;SDS011;5805;51.542;7.230;2022-09-06T06:45:37;4.25;;;2.53;;
11496;SDS011;5805;51.542;7.230;2022-09-06T06:48:04;5.80;;;2.50;;
11496;SDS011;5805;51.542;7.230;2022-09-06T06:50:30;4.25;;;2.42;;
11496;SDS011;5805;51.542;7.230;2022-09-06T06:52:56;4.15;;;2.42;;
11496;SDS011;5805;51.542;7.230;2022-09-06T06:55:21;5.03;;;2.28;;
11496;SDS011;5805;51.542;7.230;2022-09-06T06:57:47;3.42;;;2.63;;
11496;SDS011;5805;51.542;7.230;2022-09-06T07:00:13;5.53;;;2.50;;
11496;SDS011;5805;51.542;7.230;2022-09-06T07:02:39;2.63;;;2.08;;
11496;SDS011;5805;51.542;7.230;2022-09-06T07:05:06;5.88;;;2.00;;
11496;SDS011;5805;51.542;7.230;2022-09-06T07:07:32;3.13;;;1.80;;
11496;SDS011;5805;51.542;7.230;2022-09-06T07:09:58;6.50;;;1.80;;
11496;SDS011;5805;51.542;7.230;2022-09-06T07:12:24;3.55;;;1.90;;
11496;SDS011;5805;51.542;7.230;2022-09-06T07:14:49;7.78;;;1.77;;
11496;SDS011;5805;51.542;7.230;2022-09-06T07:17:15;4.75;;;1.73;;
11496;SDS011;5805;51.542;7.230;2022-09-06T07:19:41;4.75;;;2.20;;
11496;SDS011;5805;51.542;7.230;2022-09-06T07:22:08;4.50;;;1.80;;
11496;SDS011;5805;51.542;7.230;2022-09-06T07:24:33;2.28;;;1.70;;
11496;SDS011;5805;51.542;7.230;2022-09-06T07:26:59;6.53;;;2.00;;
11496;SDS011;5805;51.542;7.230;2022-09-06T07:29:25;3.45;;;2.00;;
11496;SDS011;5805;51.542;7.230;2022-09-06T07:31:50;3.10;;;1.80;;
11496;SDS011;5805;51.542;7.230;2022-09-06T07:34:16;5.40;;;1.95;;
11496;SDS011;5805;51.542;7.230;2022-09-06T07:36:41;2.95;;;1.98;;
11496;SDS011;5805;51.542;7.230;2022-09-06T07:39:08;3.03;;;1.88;;
11496;SDS011;5805;51.542;7.230;2022-09-06T07:41:34;13.10;;;2.05;;
11496;SDS011;5805;51.542;7.230;2022-09-06T07:44:00;1.95;;;1.67;;
11496;SDS011;5805;51.542;7.230;2022-09-06T07:46:26;2.85;;;1.83;;
11496;SDS011;5805;51.542;7.230;2022-09-06T07:48:51;7.07;;;1.67;;
11496;SDS011;5805;51.542;7.230;2022-09-06T07:51:18;4.72;;;2.05;;
11496;SDS011;5805;51.542;7.230;2022-09-06T07:53:46;6.57;;;1.80;;
11496;SDS011;5805;51.542;7.230;2022-09-06T07:56:15;3.15;;;1.70;;
11496;SDS011;5805;51.542;7.230;2022-09-06T07:58:41;4.00;;;1.55;;
11496;SDS011;5805;51.542;7.230;2022-09-06T08:01:17;2.75;;;1.40;;
11496;SDS011;5805;51.542;7.230;2022-09-06T08:03:53;4.55;;;1.60;;
11496;SDS011;5805;51.542;7.230;2022-09-06T08:06:19;7.55;;;2.10;;
11496;SDS011;5805;51.542;7.230;2022-09-06T08:08:45;4.63;;;1.80;;
11496;SDS011;5805;51.542;7.230;2022-09-06T08:11:11;1.48;;;1.33;;
11496;SDS011;5805;51.542;7.230;2022-09-06T08:13:38;2.20;;;1.27;;
11496;SDS011;5805;51.542;7.230;2022-09-06T08:16:04;2.10;;;1.25;;
11496;SDS011;5805;51.542;7.230;2022-09-06T08:18:31;2.83;;;1.52;;
11496;SDS011;5805;51.542;7.230;2022-09-06T08:21:04;1.20;;;1.10;;
11496;SDS011;5805;51.542;7.230;2022-09-06T08:23:30;2.13;;;1.30;;
11496;SDS011;5805;51.542;7.230;2022-09-06T08:25:56;2.85;;;1.40;;
11496;SDS011;5805;51.542;7.230;2022-09-06T08:28:22;4.32;;;1.33;;
11496;SDS011;5805;51.542;7.230;2022-09-06T08:30:49;7.75;;;1.70;;
11496;SDS011;5805;51.542;7.230;2022-09-06T08:33:15;1.52;;;1.30;;
11496;SDS011;5805;51.542;7.230;2022-09-06T08:35:41;1.92;;;1.27;;
11496;SDS011;5805;51.542;7.230;2022-09-06T08:38:07;5.20;;;1.58;;
11496;SDS011;5805;51.542;7.230;2022-09-06T08:40:33;3.08;;;1.88;;
11496;SDS011;5805;51.542;7.230;2022-09-06T08:42:58;5.07;;;1.90;;
11496;SDS011;5805;51.542;7.230;2022-09-06T08:45:25;4.80;;;2.25;;
11496;SDS011;5805;51.542;7.230;2022-09-06T08:47:52;4.68;;;1.55;;
11496;SDS011;5805;51.542;7.230;2022-09-06T08:50:19;3.70;;;1.13;;
11496;SDS011;5805;51.542;7.230;2022-09-06T08:52:49;1.63;;;1.10;;
11496;SDS011;5805;51.542;7.230;2022-09-06T08:55:25;3.33;;;1.48;;
11496;SDS011;5805;51.542;7.230;2022-09-06T08:57:59;2.60;;;1.42;;
11496;SDS011;5805;51.542;7.230;2022-09-06T09:00:33;2.55;;;1.50;;
11496;SDS011;5805;51.542;7.230;2022-09-06T09:03:03;7.43;;;2.25;;
11496;SDS011;5805;51.542;7.230;2022-09-06T09:05:34;7.38;;;2.60;;
11496;SDS011;5805;51.542;7.230;2022-09-06T09:08:04;3.58;;;1.40;;
11496;SDS011;5805;51.542;7.230;2022-09-06T09:10:39;3.70;;;1.42;;
11496;SDS011;5805;51.542;7.230;2022-09-06T09:13:06;1.75;;;1.10;;
11496;SDS011;5805;51.542;7.230;2022-09-06T09:15:36;3.10;;;1.17;;
11496;SDS011;5805;51.542;7.230;2022-09-06T09:18:03;1.77;;;1.33;;
11496;SDS011;5805;51.542;7.230;2022-09-06T09:20:29;4.00;;;1.52;;
11496;SDS011;5805;51.542;7.230;2022-09-06T09:22:55;2.55;;;1.00;;
11496;SDS011;5805;51.542;7.230;2022-09-06T09:25:21;1.20;;;1.10;;
11496;SDS011;5805;51.542;7.230;2022-09-06T09:27:47;3.13;;;1.60;;
11496;SDS011;5805;51.542;7.230;2022-09-06T09:30:16;4.07;;;1.65;;
11496;SDS011;5805;51.542;7.230;2022-09-06T09:32:42;8.13;;;1.83;;
11496;SDS011;5805;51.542;7.230;2022-09-06T09:35:18;7.93;;;2.10;;
11496;SDS011;5805;51.542;7.230;2022-09-06T09:37:46;3.80;;;1.40;;
11496;SDS011;5805;51.542;7.230;2022-09-06T09:40:14;2.47;;;1.38;;
11496;SDS011;5805;51.542;7.230;2022-09-06T09:42:51;3.35;;;1.02;;
11496;SDS011;5805;51.542;7.230;2022-09-06T09:45:23;1.95;;;1.60;;
11496;SDS011;5805;51.542;7.230;2022-09-06T09:47:50;3.35;;;1.27;;
11496;SDS011;5805;51.542;7.230;2022-09-06T09:50:25;1.83;;;1.10;;
11496;SDS011;5805;51.542;7.230;2022-09-06T09:52:52;1.10;;;1.00;;
11496;SDS011;5805;51.542;7.230;2022-09-06T09:55:20;1.27;;;1.08;;
11496;SDS011;5805;51.542;7.230;2022-09-06T09:57:47;3.75;;;1.25;;
11496;SDS011;5805;51.542;7.230;2022-09-06T10:00:14;2.30;;;0.93;;
11496;SDS011;5805;51.542;7.230;2022-09-06T10:02:57;1.45;;;1.20;;
11496;SDS011;5805;51.542;7.230;2022-09-06T10:05:24;2.53;;;1.10;;
11496;SDS011;5805;51.542;7.230;2022-09-06T10:07:50;0.82;;;0.82;;
11496;SDS011;5805;51.542;7.230;2022-09-06T10:10:19;1.73;;;0.80;;
11496;SDS011;5805;51.542;7.230;2022-09-06T10:12:46;2.05;;;1.05;;
11496;SDS011;5805;51.542;7.230;2022-09-06T10:17:57;2.17;;;0.90;;
11496;SDS011;5805;51.542;7.230;2022-09-06T10:20:24;5.38;;;1.10;;
11496;SDS011;5805;51.542;7.230;2022-09-06T10:22:58;1.30;;;0.85;;
11496;SDS011;5805;51.542;7.230;2022-09-06T10:25:38;1.73;;;1.10;;
11496;SDS011;5805;51.542;7.230;2022-09-06T10:31:04;0.95;;;0.70;;
11496;SDS011;5805;51.542;7.230;2022-09-06T10:34:02;1.02;;;0.80;;
11496;SDS011;5805;51.542;7.230;2022-09-06T10:36:51;2.05;;;1.17;;
11496;SDS011;5805;51.542;7.230;2022-09-06T10:39:30;4.00;;;1.30;;
11496;SDS011;5805;51.542;7.230;2022-09-06T10:42:05;1.98;;;0.80;;
11496;SDS011;5805;51.542;7.230;2022-09-06T10:44:42;2.83;;;1.10;;
11496;SDS011;5805;51.542;7.230;2022-09-06T10:47:16;2.08;;;1.00;;
11496;SDS011;5805;51.542;7.230;2022-09-06T10:49:43;1.00;;;0.90;;
11496;SDS011;5805;51.542;7.230;2022-09-06T10:52:14;4.32;;;1.10;;
11496;SDS011;5805;51.542;7.230;2022-09-06T10:54:43;4.78;;;1.15;;
11496;SDS011;5805;51.542;7.230;2022-09-06T10:57:10;1.10;;;0.70;;
11496;SDS011;5805;51.542;7.230;2022-09-06T10:59:44;1.60;;;1.08;;
11496;SDS011;5805;51.542;7.230;2022-09-06T11:02:15;1.77;;;1.05;;
11496;SDS011;5805;51.542;7.230;2022-09-06T11:04:50;2.00;;;1.23;;
11496;SDS011;5805;51.542;7.230;2022-09-06T11:07:23;2.38;;;1.10;;
11496;SDS011;5805;51.542;7.230;2022-09-06T11:09:53;1.55;;;1.42;;
11496;SDS011;5805;51.542;7.230;2022-09-06T11:12:26;1.77;;;1.13;;
11496;SDS011;5805;51.542;7.230;2022-09-06T11:14:59;1.95;;;1.15;;
11496;SDS011;5805;51.542;7.230;2022-09-06T11:17:28;1.65;;;1.05;;
11496;SDS011;5805;51.542;7.230;2022-09-06T11:19:59;2.08;;;1.25;;
11496;SDS011;5805;51.542;7.230;2022-09-06T11:22:50;1.35;;;0.93;;
11496;SDS011;5805;51.542;7.230;2022-09-06T11:28:28;2.15;;;1.10;;
11496;SDS011;5805;51.542;7.230;2022-09-06T11:30:59;2.63;;;0.90;;
11496;SDS011;5805;51.542;7.230;2022-09-06T11:33:27;3.15;;;1.00;;
11496;SDS011;5805;51.542;7.230;2022-09-06T11:35:57;1.60;;;1.17;;
11496;SDS011;5805;51.542;7.230;2022-09-06T11:38:53;1.65;;;1.17;;
11496;SDS011;5805;51.542;7.230;2022-09-06T11:41:20;6.05;;;1.20;;
11496;SDS011;5805;51.542;7.230;2022-09-06T11:43:52;1.25;;;1.02;;
11496;SDS011;5805;51.542;7.230;2022-09-06T11:52:01;3.15;;;0.95;;
11496;SDS011;5805;51.542;7.230;2022-09-06T11:54:57;0.93;;;0.93;;
11496;SDS011;5805;51.542;7.230;2022-09-06T11:57:23;0.98;;;0.90;;
11496;SDS011;5805;51.542;7.230;2022-09-06T11:59:54;2.90;;;1.25;;
11496;SDS011;5805;51.542;7.230;2022-09-06T12:02:33;2.78;;;1.23;;
11496;SDS011;5805;51.542;7.230;2022-09-06T12:05:10;4.32;;;1.33;;
11496;SDS011;5805;51.542;7.230;2022-09-06T12:14:00;2.40;;;1.10;;
11496;SDS011;5805;51.542;7.230;2022-09-06T12:19:37;7.80;;;1.60;;
11496;SDS011;5805;51.542;7.230;2022-09-06T12:25:04;1.63;;;0.90;;
11496;SDS011;5805;51.542;7.230;2022-09-06T12:27:32;1.73;;;1.20;;
11496;SDS011;5805;51.542;7.230;2022-09-06T12:30:01;5.78;;;1.25;;
11496;SDS011;5805;51.542;7.230;2022-09-06T12:32:30;5.75;;;1.60;;
11496;SDS011;5805;51.542;7.230;2022-09-06T12:34:58;5.43;;;1.40;;
11496;SDS011;5805;51.542;7.230;2022-09-06T12:37:30;5.35;;;1.30;;
11496;SDS011;5805;51.542;7.230;2022-09-06T12:39:58;1.52;;;1.20;;
11496;SDS011;5805;51.542;7.230;2022-09-06T12:42:24;1.48;;;1.08;;
11496;SDS011;5805;51.542;7.230;2022-09-06T12:44:51;2.50;;;1.00;;
11496;SDS011;5805;51.542;7.230;2022-09-06T12:47:26;4.63;;;1.25;;
11496;SDS011;5805;51.542;7.230;2022-09-06T12:50:08;1.55;;;1.27;;
11496;SDS011;5805;51.542;7.230;2022-09-06T12:52:44;1.75;;;1.08;;
11496;SDS011;5805;51.542;7.230;2022-09-06T12:55:19;1.52;;;1.08;;
11496;SDS011;5805;51.542;7.230;2022-09-06T12:57:50;4.07;;;2.03;;
11496;SDS011;5805;51.542;7.230;2022-09-06T13:00:18;5.75;;;1.83;;
11496;SDS011;5805;51.542;7.230;2022-09-06T13:02:50;5.40;;;1.70;;
11496;SDS011;5805;51.542;7.230;2022-09-06T13:05:20;1.58;;;1.20;;
11496;SDS011;5805;51.542;7.230;2022-09-06T13:07:49;1.75;;;1.30;;
11496;SDS011;5805;51.542;7.230;2022-09-06T13:10:18;1.77;;;1.20;;
11496;SDS011;5805;51.542;7.230;2022-09-06T13:12:48;2.10;;;1.20;;
11496;SDS011;5805;51.542;7.230;2022-09-06T13:15:16;7.18;;;1.75;;
11496;SDS011;5805;51.542;7.230;2022-09-06T13:17:45;4.00;;;1.55;;
11496;SDS011;5805;51.542;7.230;2022-09-06T13:20:11;4.75;;;2.08;;
11496;SDS011;5805;51.542;7.230;2022-09-06T13:22:40;4.40;;;1.63;;
11496;SDS011;5805;51.542;7.230;2022-09-06T13:25:15;2.97;;;1.52;;
11496;SDS011;5805;51.542;7.230;2022-09-06T13:27:47;2.13;;;1.48;;
11496;SDS011;5805;51.542;7.230;2022-09-06T13:30:37;2.85;;;1.30;;
11496;SDS011;5805;51.542;7.230;2022-09-06T13:33:04;4.25;;;1.40;;
11496;SDS011;5805;51.542;7.230;2022-09-06T13:35:32;2.38;;;1.40;;
11496;SDS011;5805;51.542;7.230;2022-09-06T13:38:18;2.47;;;1.30;;
11496;SDS011;5805;51.542;7.230;2022-09-06T13:40:46;2.25;;;1.63;;
11496;SDS011;5805;51.542;7.230;2022-09-06T13:43:14;1.95;;;1.35;;
11496;SDS011;5805;51.542;7.230;2022-09-06T13:45:47;2.08;;;1.42;;
11496;SDS011;5805;51.542;7.230;2022-09-06T13:48:13;2.95;;;1.27;;
11496;SDS011;5805;51.542;7.230;2022-09-06T13:50:39;2.20;;;1.23;;
11496;SDS011;5805;51.542;7.230;2022-09-06T13:53:05;2.42;;;1.20;;
11496;SDS011;5805;51.542;7.230;2022-09-06T13:55:31;3.65;;;1.45;;
11496;SDS011;5805;51.542;7.230;2022-09-06T13:57:56;2.47;;;1.35;;
11496;SDS011;5805;51.542;7.230;2022-09-06T14:00:22;3.83;;;1.50;;
11496;SDS011;5805;51.542;7.230;2022-09-06T14:02:49;2.53;;;1.40;;
11496;SDS011;5805;51.542;7.230;2022-09-06T14:05:15;4.00;;;1.55;;
11496;SDS011;5805;51.542;7.230;2022-09-06T14:07:41;2.67;;;1.33;;
11496;SDS011;5805;51.542;7.230;2022-09-06T14:10:07;2.30;;;1.40;;
11496;SDS011;5805;51.542;7.230;2022-09-06T14:12:34;3.88;;;1.35;;
11496;SDS011;5805;51.542;7.230;2022-09-06T14:14:59;4.18;;;1.80;;
11496;SDS011;5805;51.542;7.230;2022-09-06T14:17:25;5.15;;;1.60;;
11496;SDS011;5805;51.542;7.230;2022-09-06T14:19:52;1.60;;;1.50;;
11496;SDS011;5805;51.542;7.230;2022-09-06T14:22:18;2.47;;;1.52;;
11496;SDS011;5805;51.542;7.230;2022-09-06T14:24:44;1.85;;;1.35;;
11496;SDS011;5805;51.542;7.230;2022-09-06T14:27:09;3.53;;;1.95;;
11496;SDS011;5805;51.542;7.230;2022-09-06T14:29:35;3.45;;;1.73;;
11496;SDS011;5805;51.542;7.230;2022-09-06T14:32:01;2.75;;;1.35;;
11496;SDS011;5805;51.542;7.230;2022-09-06T14:34:27;3.67;;;1.77;;
11496;SDS011;5805;51.542;7.230;2022-09-06T14:36:54;5.68;;;1.60;;
11496;SDS011;5805;51.542;7.230;2022-09-06T14:39:20;3.72;;;1.95;;
11496;SDS011;5805;51.542;7.230;2022-09-06T14:41:45;2.75;;;1.75;;
11496;SDS011;5805;51.542;7.230;2022-09-06T14:44:11;4.90;;;1.70;;
11496;SDS011;5805;51.542;7.230;2022-09-06T14:46:37;3.13;;;1.45;;
11496;SDS011;5805;51.542;7.230;2022-09-06T14:49:03;2.92;;;1.30;;
11496;SDS011;5805;51.542;7.230;2022-09-06T14:51:30;4.60;;;1.83;;
11496;SDS011;5805;51.542;7.230;2022-09-06T14:53:58;1.58;;;1.33;;
11496;SDS011;5805;51.542;7.230;2022-09-06T14:56:26;3.10;;;1.73;;
11496;SDS011;5805;51.542;7.230;2022-09-06T14:58:51;4.53;;;1.40;;
11496;SDS011;5805;51.542;7.230;2022-09-06T15:01:19;2.97;;;1.23;;
11496;SDS011;5805;51.542;7.230;2022-09-06T15:03:47;4.25;;;1.50;;
11496;SDS011;5805;51.542;7.230;2022-09-06T15:06:13;5.65;;;1.73;;
11496;SDS011;5805;51.542;7.230;2022-09-06T15:08:40;3.28;;;1.58;;
11496;SDS011;5805;51.542;7.230;2022-09-06T15:11:07;3.08;;;1.50;;
11496;SDS011;5805;51.542;7.230;2022-09-06T15:13:34;1.73;;;1.40;;
11496;SDS011;5805;51.542;7.230;2022-09-06T15:16:00;2.17;;;1.73;;
11496;SDS011;5805;51.542;7.230;2022-09-06T15:18:26;2.78;;;1.52;;
11496;SDS011;5805;51.542;7.230;2022-09-06T15:20:52;2.53;;;1.45;;
11496;SDS011;5805;51.542;7.230;2022-09-06T15:23:18;3.10;;;1.70;;
11496;SDS011;5805;51.542;7.230;2022-09-06T15:25:44;6.45;;;1.38;;
11496;SDS011;5805;51.542;7.230;2022-09-06T15:28:12;4.57;;;1.52;;
11496;SDS011;5805;51.542;7.230;2022-09-06T15:30:38;4.85;;;1.35;;
11496;SDS011;5805;51.542;7.230;2022-09-06T15:33:04;3.80;;;1.45;;
11496;SDS011;5805;51.542;7.230;2022-09-06T15:35:30;5.60;;;1.65;;